Tuesday, January 15, 2019, 11:32 PM GMT
Back to Local

CYOW, Ottawa Int'L. Ont.

Location: , , Canada Lat: 45.317
Local Time: 11:32 PM GMT (23:32 GMT) Lon: -75.667
Time Zone: GMT Elev: 380 ft

Show me the last for .
Show Decoded

2019-01-15 23:11 METAR CYOW 152311Z 11003KT 10SM OVC014 M03/M04 A2997 RMK SC8 SLP156 =
2019-01-15 23:00 METAR CYOW 152300Z 11004KT 10SM OVC014 M03/M04 A2997 RMK SC8 INTMT -SN SLP156 =
2019-01-15 22:00 METAR CYOW 152200Z 13005KT 4SM -SN OVC016 M03/M05 A2998 RMK SC8 SLP161 =
2019-01-15 21:00 METAR CYOW 152100Z 13006KT 15SM -SN OVC015 M02/M05 A3000 RMK SC8 SLP168 =
2019-01-15 20:45 METAR CYOW 152045Z 16005KT 10SM -SN OVC015 M02/M05 A3001 RMK SC8 SLP169 =
2019-01-15 20:00 METAR CYOW 152000Z 15004KT 10SM -SN BKN012 BKN017 OVC036 M03/M05 A3001 RMK
                 SC5SC2SC1 SLP171 =
2019-01-15 19:45 METAR CYOW 151945Z 13005KT 10SM -SN SCT012 BKN017 OVC036 M03/M05 A3001 RMK
                 SF4SC3SC1 SLP171 =
2019-01-15 19:15 METAR CYOW 151915Z 12004KT 100V160 10SM -SN BKN012 BKN017 OVC036 M03/M05 A3002
                 RMK SF5SC2SC1 SLP173 =
2019-01-15 19:00 METAR CYOW 151900Z 17003KT 120V200 10SM -SN SCT010 BKN017 OVC036 M03/M05 A3002
                 RMK SF4SC3SC1 SLP175 =
2019-01-15 18:45 METAR CYOW 151845Z 12003KT 10SM -SN SCT010 BKN019 OVC036 M03/M06 A3002 RMK
                 SF4SC2SC2 SLP175 =
2019-01-15 18:00 METAR CYOW 151800Z 13004KT 10SM -SN BKN010 BKN025 OVC037 M04/M06 A3004 RMK
                 SF5SC1SC2 SLP180 =
2019-01-15 17:00 METAR CYOW 151700Z 06002KT 10SM -SN BKN009 OVC037 M04/M06 A3006 RMK SF5SC3
                 SLP190 =
2019-01-15 16:30 METAR CYOW 151630Z 00000KT 10SM -SN BKN009 OVC036 M04/M06 A3008 RMK SF5SC3
                 SLP196 =
2019-01-15 16:00 METAR CYOW 151600Z 04002KT 10SM -SN FEW012 OVC034 M04/M06 A3009 RMK SF1SC7
                 SLP199 =
2019-01-15 15:00 METAR CYOW 151500Z 00000KT 10SM -SN SCT012 OVC037 M05/M07 A3010 RMK SF3SC5
                 SLP203 =
2019-01-15 14:15 METAR CYOW 151415Z 00000KT 15SM -SN SCT012 BKN040 OVC080 M06/M07 A3010 RMK
                 SF3SC4AC1 SLP202 =
2019-01-15 14:00 METAR CYOW 151400Z 00000KT 15SM -SN BKN012 BKN045 OVC080 M06/M07 A3010 RMK
                 SF5SC2AC1 SLP201 =
2019-01-15 13:20 METAR CYOW 151320Z 00000KT 15SM BKN013 BKN055 OVC080 M06/M07 A3009 RMK SF5SC2AC1
                 SLP200 =
2019-01-15 13:00 METAR CYOW 151300Z 00000KT 15SM -SN BKN055 BKN080 BKN230 M06/M07 A3009 RMK
                 SC6AC1CI1 CI TR SLP199 =
2019-01-15 12:00 METAR CYOW 151200Z 25002KT 10SM -SN FEW010 OVC050 M06/M07 A3009 RMK SC2SC6
                 SLP198 =
2019-01-15 11:00 METAR CYOW 151100Z 22004KT 10SM -SN SCT010 OVC042 M05/M07 A3008 RMK SC3SC5
                 SLP196 =
2019-01-15 10:00 METAR CYOW 151000Z 22006KT 13SM -SN BKN010 BKN034 M05/M07 A3008 RMK SC6SC1
                 SLP195 =
2019-01-15 09:43 METAR CYOW 150943Z 22005KT 13SM -SN OVC010 M05/M07 A3008 RMK SC8 SLP196 =
2019-01-15 09:00 METAR CYOW 150900Z 22006KT 13SM OVC012 M06/M08 A3009 RMK SC8 SLP199 =
2019-01-15 08:00 METAR CYOW 150800Z 21006KT 15SM OVC014 M06/M09 A3010 RMK SC8 SLP202 =
2019-01-15 07:48 METAR CYOW 150748Z 21005KT 15SM OVC015 M06/M09 A3010 RMK SC8 SLP203 =
2019-01-15 07:16 METAR CYOW 150716Z 22005KT 15SM OVC017 M06/M10 A3010 RMK SC8 SLP203 =
2019-01-15 07:00 METAR CYOW 150700Z 22005KT 15SM -SN FEW011 OVC020 M06/M10 A3010 RMK SC1SC7
                 SLP202 =
2019-01-15 06:34 METAR CYOW 150634Z 22006KT 15SM -SN SCT011 OVC023 M06/M10 A3010 RMK SC3SC5
                 SLP202 =
2019-01-15 06:00 METAR CYOW 150600Z 21006KT 15SM SCT014 OVC024 M07/M10 A3010 RMK SC3SC5 SLP202 =
2019-01-15 05:14 METAR CYOW 150514Z 21007KT 15SM OVC014 M07/M11 A3011 RMK SC8 SLP205 =
2019-01-15 05:00 METAR CYOW 150500Z 20006KT 15SM OVC016 M07/M11 A3012 RMK SC8 SLP208 =
2019-01-15 04:00 METAR CYOW 150400Z 20007KT 15SM OVC018 M08/M11 A3013 RMK SC8 SLP214 =
2019-01-15 03:00 METAR CYOW 150300Z 19009KT 15SM OVC023 M08/M12 A3014 RMK SC8 SLP217 =
2019-01-15 02:00 METAR CYOW 150200Z 19005KT 15SM OVC022 M08/M13 A3015 RMK SC8 SLP222 =
2019-01-15 01:00 METAR CYOW 150100Z 19006KT 15SM BKN022 OVC025 M08/M13 A3016 RMK SC6SC2 SLP224 =
2019-01-15 00:00 METAR CYOW 150000Z 20005KT 15SM SCT025 OVC028 M09/M13 A3018 RMK SC4SC4 SLP232 =

Support USWX by starting your Amazon purchase here.